sensor_id;sensor_type;location;lat;lon;timestamp;P1;durP1;ratioP1;P2;durP2;ratioP2
76459;SDS011;65299;46.084;18.762;2023-03-31T00:00:19;4.57;;;1.83;;
76459;SDS011;65299;46.084;18.762;2023-03-31T00:03:20;3.00;;;1.47;;
76459;SDS011;65299;46.084;18.762;2023-03-31T00:06:20;3.00;;;1.57;;
76459;SDS011;65299;46.084;18.762;2023-03-31T00:09:21;5.57;;;1.80;;
76459;SDS011;65299;46.084;18.762;2023-03-31T00:12:21;3.70;;;1.80;;
76459;SDS011;65299;46.084;18.762;2023-03-31T00:15:22;2.90;;;1.73;;
76459;SDS011;65299;46.084;18.762;2023-03-31T00:18:22;4.60;;;1.67;;
76459;SDS011;65299;46.084;18.762;2023-03-31T00:21:24;3.22;;;2.00;;
76459;SDS011;65299;46.084;18.762;2023-03-31T00:24:28;6.10;;;1.80;;
76459;SDS011;65299;46.084;18.762;2023-03-31T00:27:32;3.33;;;1.90;;
76459;SDS011;65299;46.084;18.762;2023-03-31T00:30:32;5.70;;;2.00;;
76459;SDS011;65299;46.084;18.762;2023-03-31T00:33:32;4.17;;;1.80;;
76459;SDS011;65299;46.084;18.762;2023-03-31T00:36:33;3.63;;;2.00;;
76459;SDS011;65299;46.084;18.762;2023-03-31T00:39:35;6.53;;;2.20;;
76459;SDS011;65299;46.084;18.762;2023-03-31T00:42:40;3.42;;;1.98;;
76459;SDS011;65299;46.084;18.762;2023-03-31T00:45:41;4.82;;;2.20;;
76459;SDS011;65299;46.084;18.762;2023-03-31T00:48:46;4.33;;;1.80;;
76459;SDS011;65299;46.084;18.762;2023-03-31T00:51:59;3.97;;;1.70;;
76459;SDS011;65299;46.084;18.762;2023-03-31T00:55:09;4.32;;;1.95;;
76459;SDS011;65299;46.084;18.762;2023-03-31T00:58:13;4.38;;;1.70;;
76459;SDS011;65299;46.084;18.762;2023-03-31T01:01:19;3.88;;;1.52;;
76459;SDS011;65299;46.084;18.762;2023-03-31T01:04:23;6.40;;;1.98;;
76459;SDS011;65299;46.084;18.762;2023-03-31T01:07:29;3.53;;;1.80;;
76459;SDS011;65299;46.084;18.762;2023-03-31T01:10:38;4.88;;;1.60;;
76459;SDS011;65299;46.084;18.762;2023-03-31T01:13:42;2.78;;;1.88;;
76459;SDS011;65299;46.084;18.762;2023-03-31T01:16:43;3.67;;;2.15;;
76459;SDS011;65299;46.084;18.762;2023-03-31T01:19:48;4.83;;;1.60;;
76459;SDS011;65299;46.084;18.762;2023-03-31T01:47:30;3.63;;;1.70;;
76459;SDS011;65299;46.084;18.762;2023-03-31T01:50:58;3.50;;;1.73;;
76459;SDS011;65299;46.084;18.762;2023-03-31T01:54:18;4.97;;;1.48;;
76459;SDS011;65299;46.084;18.762;2023-03-31T01:57:24;4.50;;;1.33;;
76459;SDS011;65299;46.084;18.762;2023-03-31T02:00:47;3.40;;;1.60;;
76459;SDS011;65299;46.084;18.762;2023-03-31T02:03:57;3.37;;;1.00;;
76459;SDS011;65299;46.084;18.762;2023-03-31T02:07:07;2.95;;;1.30;;
76459;SDS011;65299;46.084;18.762;2023-03-31T02:10:14;3.55;;;1.50;;
76459;SDS011;65299;46.084;18.762;2023-03-31T02:13:16;6.15;;;1.50;;
76459;SDS011;65299;46.084;18.762;2023-03-31T02:16:21;3.38;;;1.38;;
76459;SDS011;65299;46.084;18.762;2023-03-31T02:19:26;4.33;;;1.60;;
76459;SDS011;65299;46.084;18.762;2023-03-31T02:22:32;4.00;;;1.50;;
76459;SDS011;65299;46.084;18.762;2023-03-31T02:25:40;3.35;;;1.30;;
76459;SDS011;65299;46.084;18.762;2023-03-31T02:28:46;3.97;;;1.20;;
76459;SDS011;65299;46.084;18.762;2023-03-31T02:31:48;3.63;;;1.40;;
76459;SDS011;65299;46.084;18.762;2023-03-31T02:34:55;2.10;;;1.40;;
76459;SDS011;65299;46.084;18.762;2023-03-31T02:37:56;3.77;;;1.60;;
76459;SDS011;65299;46.084;18.762;2023-03-31T02:40:57;3.38;;;1.50;;
76459;SDS011;65299;46.084;18.762;2023-03-31T02:43:58;8.77;;;1.87;;
76459;SDS011;65299;46.084;18.762;2023-03-31T02:47:00;3.80;;;1.88;;
76459;SDS011;65299;46.084;18.762;2023-03-31T02:50:02;3.88;;;1.45;;
76459;SDS011;65299;46.084;18.762;2023-03-31T02:53:16;5.72;;;1.60;;
76459;SDS011;65299;46.084;18.762;2023-03-31T03:03:08;9.30;;;1.52;;
76459;SDS011;65299;46.084;18.762;2023-03-31T03:16:28;5.30;;;1.52;;
76459;SDS011;65299;46.084;18.762;2023-03-31T03:19:32;5.72;;;1.25;;
76459;SDS011;65299;46.084;18.762;2023-03-31T03:22:32;3.27;;;1.57;;
76459;SDS011;65299;46.084;18.762;2023-03-31T03:25:33;2.97;;;1.50;;
76459;SDS011;65299;46.084;18.762;2023-03-31T03:28:34;4.13;;;1.45;;
76459;SDS011;65299;46.084;18.762;2023-03-31T03:31:34;3.20;;;1.90;;
76459;SDS011;65299;46.084;18.762;2023-03-31T03:34:35;3.90;;;1.57;;
76459;SDS011;65299;46.084;18.762;2023-03-31T03:37:36;2.88;;;1.35;;
76459;SDS011;65299;46.084;18.762;2023-03-31T03:40:37;7.18;;;1.88;;
76459;SDS011;65299;46.084;18.762;2023-03-31T03:43:37;2.47;;;1.50;;
76459;SDS011;65299;46.084;18.762;2023-03-31T03:46:38;7.40;;;1.83;;
76459;SDS011;65299;46.084;18.762;2023-03-31T03:49:38;6.37;;;2.17;;
76459;SDS011;65299;46.084;18.762;2023-03-31T03:52:39;2.20;;;1.63;;
76459;SDS011;65299;46.084;18.762;2023-03-31T03:55:39;5.60;;;1.83;;
76459;SDS011;65299;46.084;18.762;2023-03-31T03:58:40;6.10;;;2.33;;
76459;SDS011;65299;46.084;18.762;2023-03-31T04:01:40;5.83;;;2.20;;
76459;SDS011;65299;46.084;18.762;2023-03-31T04:04:40;2.77;;;1.73;;
76459;SDS011;65299;46.084;18.762;2023-03-31T04:07:41;4.53;;;1.93;;
76459;SDS011;65299;46.084;18.762;2023-03-31T04:10:45;5.63;;;2.00;;
76459;SDS011;65299;46.084;18.762;2023-03-31T04:13:48;2.72;;;1.90;;
76459;SDS011;65299;46.084;18.762;2023-03-31T04:16:48;3.97;;;1.80;;
76459;SDS011;65299;46.084;18.762;2023-03-31T04:19:48;5.07;;;2.55;;
76459;SDS011;65299;46.084;18.762;2023-03-31T04:22:49;5.20;;;2.37;;
76459;SDS011;65299;46.084;18.762;2023-03-31T04:25:50;6.27;;;2.23;;
76459;SDS011;65299;46.084;18.762;2023-03-31T04:28:50;3.80;;;1.63;;
76459;SDS011;65299;46.084;18.762;2023-03-31T04:31:54;3.90;;;1.93;;
76459;SDS011;65299;46.084;18.762;2023-03-31T04:34:58;6.63;;;1.58;;
76459;SDS011;65299;46.084;18.762;2023-03-31T04:38:01;6.70;;;2.47;;
76459;SDS011;65299;46.084;18.762;2023-03-31T04:41:02;9.48;;;2.28;;
76459;SDS011;65299;46.084;18.762;2023-03-31T04:44:02;5.77;;;1.90;;
76459;SDS011;65299;46.084;18.762;2023-03-31T04:47:03;4.67;;;2.20;;
76459;SDS011;65299;46.084;18.762;2023-03-31T04:50:06;5.93;;;2.03;;
76459;SDS011;65299;46.084;18.762;2023-03-31T04:53:07;5.93;;;2.38;;
76459;SDS011;65299;46.084;18.762;2023-03-31T04:56:07;5.70;;;2.03;;
76459;SDS011;65299;46.084;18.762;2023-03-31T04:59:08;6.23;;;2.10;;
76459;SDS011;65299;46.084;18.762;2023-03-31T05:02:08;8.17;;;2.10;;
76459;SDS011;65299;46.084;18.762;2023-03-31T05:05:09;5.47;;;1.77;;
76459;SDS011;65299;46.084;18.762;2023-03-31T05:08:10;5.88;;;1.73;;
76459;SDS011;65299;46.084;18.762;2023-03-31T05:11:10;4.33;;;1.80;;
76459;SDS011;65299;46.084;18.762;2023-03-31T05:14:11;9.15;;;2.28;;
76459;SDS011;65299;46.084;18.762;2023-03-31T05:17:11;5.00;;;2.10;;
76459;SDS011;65299;46.084;18.762;2023-03-31T05:20:11;2.90;;;1.90;;
76459;SDS011;65299;46.084;18.762;2023-03-31T05:23:13;3.45;;;1.38;;
76459;SDS011;65299;46.084;18.762;2023-03-31T05:26:14;3.45;;;1.70;;
76459;SDS011;65299;46.084;18.762;2023-03-31T05:29:14;3.20;;;1.80;;
76459;SDS011;65299;46.084;18.762;2023-03-31T05:32:15;4.32;;;2.35;;
76459;SDS011;65299;46.084;18.762;2023-03-31T05:35:16;4.23;;;2.00;;
76459;SDS011;65299;46.084;18.762;2023-03-31T05:38:17;7.15;;;2.00;;
76459;SDS011;65299;46.084;18.762;2023-03-31T05:41:17;5.10;;;1.70;;
76459;SDS011;65299;46.084;18.762;2023-03-31T05:44:17;3.17;;;2.13;;
76459;SDS011;65299;46.084;18.762;2023-03-31T05:47:19;6.82;;;2.42;;
76459;SDS011;65299;46.084;18.762;2023-03-31T05:50:20;4.47;;;1.53;;
76459;SDS011;65299;46.084;18.762;2023-03-31T05:53:20;3.30;;;1.77;;
76459;SDS011;65299;46.084;18.762;2023-03-31T05:56:20;4.93;;;2.10;;
76459;SDS011;65299;46.084;18.762;2023-03-31T05:59:22;3.33;;;1.80;;
76459;SDS011;65299;46.084;18.762;2023-03-31T06:02:22;2.97;;;1.73;;
76459;SDS011;65299;46.084;18.762;2023-03-31T06:05:23;2.63;;;1.73;;
76459;SDS011;65299;46.084;18.762;2023-03-31T06:08:25;4.32;;;1.98;;
76459;SDS011;65299;46.084;18.762;2023-03-31T06:11:26;8.03;;;2.13;;
76459;SDS011;65299;46.084;18.762;2023-03-31T06:14:26;3.10;;;1.10;;
76459;SDS011;65299;46.084;18.762;2023-03-31T06:17:27;3.83;;;1.50;;
76459;SDS011;65299;46.084;18.762;2023-03-31T06:20:28;6.18;;;1.40;;
76459;SDS011;65299;46.084;18.762;2023-03-31T06:23:28;5.27;;;1.93;;
76459;SDS011;65299;46.084;18.762;2023-03-31T06:26:29;3.03;;;1.07;;
76459;SDS011;65299;46.084;18.762;2023-03-31T06:29:29;6.85;;;1.40;;
76459;SDS011;65299;46.084;18.762;2023-03-31T06:32:30;2.80;;;1.20;;
76459;SDS011;65299;46.084;18.762;2023-03-31T06:35:30;3.27;;;1.40;;
76459;SDS011;65299;46.084;18.762;2023-03-31T06:38:31;4.23;;;1.50;;
76459;SDS011;65299;46.084;18.762;2023-03-31T06:41:32;3.65;;;0.95;;
76459;SDS011;65299;46.084;18.762;2023-03-31T06:44:33;2.37;;;1.07;;
76459;SDS011;65299;46.084;18.762;2023-03-31T06:47:33;4.17;;;1.37;;
76459;SDS011;65299;46.084;18.762;2023-03-31T06:50:36;4.23;;;1.20;;
76459;SDS011;65299;46.084;18.762;2023-03-31T06:53:37;2.85;;;1.02;;
76459;SDS011;65299;46.084;18.762;2023-03-31T06:56:38;7.57;;;1.40;;
76459;SDS011;65299;46.084;18.762;2023-03-31T06:59:39;5.18;;;2.15;;
76459;SDS011;65299;46.084;18.762;2023-03-31T07:02:39;3.58;;;1.40;;
76459;SDS011;65299;46.084;18.762;2023-03-31T07:05:40;11.10;;;6.23;;
76459;SDS011;65299;46.084;18.762;2023-03-31T07:08:42;5.90;;;3.30;;
76459;SDS011;65299;46.084;18.762;2023-03-31T07:11:42;4.63;;;1.17;;
76459;SDS011;65299;46.084;18.762;2023-03-31T07:14:43;4.63;;;1.07;;
76459;SDS011;65299;46.084;18.762;2023-03-31T07:17:43;1.93;;;0.80;;
76459;SDS011;65299;46.084;18.762;2023-03-31T07:20:46;5.07;;;1.13;;
76459;SDS011;65299;46.084;18.762;2023-03-31T07:23:49;3.27;;;0.80;;
76459;SDS011;65299;46.084;18.762;2023-03-31T07:26:49;5.68;;;1.45;;
76459;SDS011;65299;46.084;18.762;2023-03-31T07:29:49;4.83;;;1.50;;
76459;SDS011;65299;46.084;18.762;2023-03-31T07:32:50;2.93;;;0.73;;
76459;SDS011;65299;46.084;18.762;2023-03-31T07:35:51;3.05;;;1.00;;
76459;SDS011;65299;46.084;18.762;2023-03-31T07:38:52;4.37;;;1.33;;
76459;SDS011;65299;46.084;18.762;2023-03-31T07:41:52;3.25;;;1.40;;
76459;SDS011;65299;46.084;18.762;2023-03-31T07:44:52;4.50;;;1.23;;
76459;SDS011;65299;46.084;18.762;2023-03-31T07:47:53;3.23;;;1.30;;
76459;SDS011;65299;46.084;18.762;2023-03-31T07:50:53;2.97;;;1.20;;
76459;SDS011;65299;46.084;18.762;2023-03-31T07:53:54;4.25;;;2.10;;
76459;SDS011;65299;46.084;18.762;2023-03-31T07:56:54;7.53;;;3.37;;
76459;SDS011;65299;46.084;18.762;2023-03-31T07:59:55;4.17;;;2.97;;
76459;SDS011;65299;46.084;18.762;2023-03-31T08:02:55;1.87;;;1.30;;
76459;SDS011;65299;46.084;18.762;2023-03-31T08:05:56;5.18;;;0.95;;
76459;SDS011;65299;46.084;18.762;2023-03-31T08:08:56;4.00;;;0.90;;
76459;SDS011;65299;46.084;18.762;2023-03-31T08:11:57;5.72;;;1.23;;
76459;SDS011;65299;46.084;18.762;2023-03-31T08:14:58;3.93;;;0.97;;
76459;SDS011;65299;46.084;18.762;2023-03-31T08:17:58;4.17;;;1.20;;
76459;SDS011;65299;46.084;18.762;2023-03-31T08:20:59;3.87;;;0.90;;
76459;SDS011;65299;46.084;18.762;2023-03-31T08:23:59;5.60;;;1.23;;
76459;SDS011;65299;46.084;18.762;2023-03-31T08:26:59;4.00;;;1.17;;
76459;SDS011;65299;46.084;18.762;2023-03-31T08:30:00;6.07;;;1.63;;
76459;SDS011;65299;46.084;18.762;2023-03-31T08:33:03;3.13;;;1.40;;
76459;SDS011;65299;46.084;18.762;2023-03-31T08:36:04;4.90;;;1.20;;
76459;SDS011;65299;46.084;18.762;2023-03-31T08:39:07;4.15;;;1.13;;
76459;SDS011;65299;46.084;18.762;2023-03-31T08:42:10;3.90;;;1.10;;
76459;SDS011;65299;46.084;18.762;2023-03-31T08:45:17;4.60;;;2.05;;
76459;SDS011;65299;46.084;18.762;2023-03-31T08:51:42;6.55;;;1.02;;
76459;SDS011;65299;46.084;18.762;2023-03-31T08:54:49;5.67;;;1.37;;
76459;SDS011;65299;46.084;18.762;2023-03-31T09:08:47;3.30;;;1.48;;
76459;SDS011;65299;46.084;18.762;2023-03-31T09:15:00;4.70;;;0.90;;
76459;SDS011;65299;46.084;18.762;2023-03-31T09:18:27;2.80;;;1.08;;
76459;SDS011;65299;46.084;18.762;2023-03-31T09:21:34;3.45;;;0.90;;
76459;SDS011;65299;46.084;18.762;2023-03-31T09:24:49;2.80;;;0.90;;
76459;SDS011;65299;46.084;18.762;2023-03-31T09:27:55;4.63;;;1.10;;
76459;SDS011;65299;46.084;18.762;2023-03-31T09:30:58;3.60;;;1.35;;
76459;SDS011;65299;46.084;18.762;2023-03-31T09:34:08;2.88;;;1.13;;
76459;SDS011;65299;46.084;18.762;2023-03-31T09:37:13;3.97;;;0.90;;
76459;SDS011;65299;46.084;18.762;2023-03-31T09:40:23;3.60;;;1.20;;
76459;SDS011;65299;46.084;18.762;2023-03-31T09:43:29;5.32;;;1.35;;
76459;SDS011;65299;46.084;18.762;2023-03-31T09:46:32;2.67;;;0.90;;
76459;SDS011;65299;46.084;18.762;2023-03-31T09:49:35;5.20;;;1.20;;
76459;SDS011;65299;46.084;18.762;2023-03-31T09:52:38;7.33;;;3.73;;
76459;SDS011;65299;46.084;18.762;2023-03-31T09:55:59;4.45;;;2.40;;
76459;SDS011;65299;46.084;18.762;2023-03-31T09:59:01;4.78;;;1.90;;
76459;SDS011;65299;46.084;18.762;2023-03-31T10:02:03;4.05;;;1.15;;
76459;SDS011;65299;46.084;18.762;2023-03-31T10:08:42;5.73;;;1.17;;
76459;SDS011;65299;46.084;18.762;2023-03-31T10:12:06;5.97;;;0.93;;
76459;SDS011;65299;46.084;18.762;2023-03-31T10:15:17;5.50;;;0.90;;
76459;SDS011;65299;46.084;18.762;2023-03-31T10:18:20;3.28;;;1.10;;
76459;SDS011;65299;46.084;18.762;2023-03-31T10:21:34;3.92;;;1.10;;
76459;SDS011;65299;46.084;18.762;2023-03-31T10:24:37;4.03;;;1.23;;
76459;SDS011;65299;46.084;18.762;2023-03-31T10:27:40;1.55;;;0.80;;
76459;SDS011;65299;46.084;18.762;2023-03-31T10:30:41;4.60;;;1.20;;
76459;SDS011;65299;46.084;18.762;2023-03-31T10:33:48;2.50;;;1.00;;
76459;SDS011;65299;46.084;18.762;2023-03-31T10:36:51;6.75;;;1.67;;
76459;SDS011;65299;46.084;18.762;2023-03-31T10:39:58;6.30;;;1.30;;
76459;SDS011;65299;46.084;18.762;2023-03-31T10:46:18;3.15;;;1.20;;
76459;SDS011;65299;46.084;18.762;2023-03-31T10:52:21;2.30;;;0.83;;
76459;SDS011;65299;46.084;18.762;2023-03-31T10:55:25;4.07;;;1.00;;
76459;SDS011;65299;46.084;18.762;2023-03-31T10:58:38;3.50;;;1.13;;
76459;SDS011;65299;46.084;18.762;2023-03-31T11:09:12;3.63;;;1.10;;
76459;SDS011;65299;46.084;18.762;2023-03-31T11:25:51;3.70;;;1.00;;
76459;SDS011;65299;46.084;18.762;2023-03-31T11:31:52;2.55;;;0.82;;
76459;SDS011;65299;46.084;18.762;2023-03-31T11:41:51;4.10;;;1.00;;
76459;SDS011;65299;46.084;18.762;2023-03-31T11:45:02;3.00;;;0.75;;
76459;SDS011;65299;46.084;18.762;2023-03-31T11:51:59;2.72;;;0.77;;
76459;SDS011;65299;46.084;18.762;2023-03-31T11:55:11;4.20;;;1.15;;
76459;SDS011;65299;46.084;18.762;2023-03-31T11:58:17;5.23;;;0.80;;
76459;SDS011;65299;46.084;18.762;2023-03-31T12:01:29;3.30;;;1.05;;
76459;SDS011;65299;46.084;18.762;2023-03-31T12:04:53;4.30;;;0.88;;
76459;SDS011;65299;46.084;18.762;2023-03-31T12:11:21;1.88;;;0.90;;
76459;SDS011;65299;46.084;18.762;2023-03-31T12:17:49;2.25;;;0.90;;
76459;SDS011;65299;46.084;18.762;2023-03-31T12:20:55;5.32;;;1.02;;
76459;SDS011;65299;46.084;18.762;2023-03-31T12:24:01;2.28;;;0.80;;
76459;SDS011;65299;46.084;18.762;2023-03-31T12:30:33;3.65;;;0.90;;
76459;SDS011;65299;46.084;18.762;2023-03-31T12:33:41;2.83;;;1.10;;
76459;SDS011;65299;46.084;18.762;2023-03-31T12:46:49;2.97;;;0.85;;
76459;SDS011;65299;46.084;18.762;2023-03-31T12:50:08;5.32;;;2.33;;
76459;SDS011;65299;46.084;18.762;2023-03-31T12:57:22;18.10;;;6.00;;
76459;SDS011;65299;46.084;18.762;2023-03-31T13:00:25;16.95;;;5.28;;
76459;SDS011;65299;46.084;18.762;2023-03-31T13:09:40;9.70;;;2.25;;
76459;SDS011;65299;46.084;18.762;2023-03-31T13:16:02;3.17;;;1.30;;
76459;SDS011;65299;46.084;18.762;2023-03-31T13:19:02;4.40;;;1.17;;
76459;SDS011;65299;46.084;18.762;2023-03-31T13:22:04;3.65;;;1.20;;
76459;SDS011;65299;46.084;18.762;2023-03-31T13:28:40;4.97;;;1.60;;
76459;SDS011;65299;46.084;18.762;2023-03-31T13:35:06;13.70;;;5.10;;
76459;SDS011;65299;46.084;18.762;2023-03-31T13:45:54;2.72;;;1.15;;
76459;SDS011;65299;46.084;18.762;2023-03-31T14:08:36;5.68;;;1.27;;
76459;SDS011;65299;46.084;18.762;2023-03-31T14:11:59;9.57;;;2.40;;
76459;SDS011;65299;46.084;18.762;2023-03-31T14:15:00;6.03;;;1.50;;
76459;SDS011;65299;46.084;18.762;2023-03-31T14:18:02;5.82;;;1.80;;
76459;SDS011;65299;46.084;18.762;2023-03-31T14:24:09;2.50;;;1.02;;
76459;SDS011;65299;46.084;18.762;2023-03-31T14:37:38;5.33;;;1.50;;
76459;SDS011;65299;46.084;18.762;2023-03-31T14:40:52;3.42;;;1.30;;
76459;SDS011;65299;46.084;18.762;2023-03-31T14:43:56;3.23;;;1.27;;
76459;SDS011;65299;46.084;18.762;2023-03-31T14:46:59;6.63;;;2.50;;
76459;SDS011;65299;46.084;18.762;2023-03-31T14:50:02;4.90;;;1.40;;
76459;SDS011;65299;46.084;18.762;2023-03-31T14:53:18;6.05;;;1.70;;
76459;SDS011;65299;46.084;18.762;2023-03-31T14:56:33;4.07;;;1.42;;
76459;SDS011;65299;46.084;18.762;2023-03-31T14:59:37;8.80;;;2.50;;
76459;SDS011;65299;46.084;18.762;2023-03-31T15:02:41;6.00;;;2.15;;
76459;SDS011;65299;46.084;18.762;2023-03-31T15:05:43;3.95;;;0.95;;
76459;SDS011;65299;46.084;18.762;2023-03-31T15:08:47;3.97;;;1.50;;
76459;SDS011;65299;46.084;18.762;2023-03-31T15:11:51;3.43;;;1.00;;
76459;SDS011;65299;46.084;18.762;2023-03-31T15:15:03;4.00;;;0.80;;
76459;SDS011;65299;46.084;18.762;2023-03-31T15:18:05;5.35;;;1.33;;
76459;SDS011;65299;46.084;18.762;2023-03-31T15:21:08;3.93;;;1.57;;
76459;SDS011;65299;46.084;18.762;2023-03-31T15:24:18;3.17;;;1.50;;
76459;SDS011;65299;46.084;18.762;2023-03-31T15:30:34;4.18;;;1.20;;
76459;SDS011;65299;46.084;18.762;2023-03-31T15:33:35;6.47;;;2.20;;
76459;SDS011;65299;46.084;18.762;2023-03-31T15:36:40;5.90;;;2.47;;
76459;SDS011;65299;46.084;18.762;2023-03-31T15:39:43;8.95;;;2.05;;
76459;SDS011;65299;46.084;18.762;2023-03-31T15:42:46;5.80;;;2.05;;
76459;SDS011;65299;46.084;18.762;2023-03-31T15:49:01;9.02;;;2.78;;
76459;SDS011;65299;46.084;18.762;2023-03-31T15:52:01;9.63;;;4.67;;
76459;SDS011;65299;46.084;18.762;2023-03-31T15:55:23;6.43;;;3.00;;
76459;SDS011;65299;46.084;18.762;2023-03-31T15:58:23;12.97;;;4.23;;
76459;SDS011;65299;46.084;18.762;2023-03-31T16:01:44;7.43;;;3.30;;
76459;SDS011;65299;46.084;18.762;2023-03-31T16:04:48;9.73;;;2.60;;
76459;SDS011;65299;46.084;18.762;2023-03-31T16:07:53;10.50;;;3.90;;
76459;SDS011;65299;46.084;18.762;2023-03-31T16:10:55;10.70;;;3.28;;
76459;SDS011;65299;46.084;18.762;2023-03-31T16:14:00;9.77;;;3.67;;
76459;SDS011;65299;46.084;18.762;2023-03-31T16:17:23;10.10;;;3.45;;
76459;SDS011;65299;46.084;18.762;2023-03-31T16:20:36;13.23;;;4.10;;
76459;SDS011;65299;46.084;18.762;2023-03-31T16:23:48;8.85;;;2.67;;
76459;SDS011;65299;46.084;18.762;2023-03-31T16:26:56;8.73;;;3.03;;
76459;SDS011;65299;46.084;18.762;2023-03-31T16:30:21;5.87;;;2.40;;
76459;SDS011;65299;46.084;18.762;2023-03-31T16:33:21;4.78;;;1.80;;
76459;SDS011;65299;46.084;18.762;2023-03-31T16:36:23;6.82;;;2.40;;
76459;SDS011;65299;46.084;18.762;2023-03-31T16:39:23;8.50;;;2.43;;
76459;SDS011;65299;46.084;18.762;2023-03-31T16:42:25;8.70;;;3.72;;
76459;SDS011;65299;46.084;18.762;2023-03-31T16:45:26;10.10;;;3.72;;
76459;SDS011;65299;46.084;18.762;2023-03-31T16:48:27;6.63;;;2.93;;
76459;SDS011;65299;46.084;18.762;2023-03-31T16:51:28;6.38;;;2.22;;
76459;SDS011;65299;46.084;18.762;2023-03-31T16:54:28;5.93;;;1.70;;
76459;SDS011;65299;46.084;18.762;2023-03-31T16:57:29;5.53;;;1.80;;
76459;SDS011;65299;46.084;18.762;2023-03-31T17:00:31;5.83;;;2.37;;
76459;SDS011;65299;46.084;18.762;2023-03-31T17:03:36;6.75;;;2.03;;
76459;SDS011;65299;46.084;18.762;2023-03-31T17:06:38;4.97;;;1.90;;
76459;SDS011;65299;46.084;18.762;2023-03-31T17:09:39;8.07;;;1.97;;
76459;SDS011;65299;46.084;18.762;2023-03-31T17:12:39;7.03;;;2.10;;
76459;SDS011;65299;46.084;18.762;2023-03-31T17:15:40;5.37;;;1.90;;
76459;SDS011;65299;46.084;18.762;2023-03-31T17:18:40;7.23;;;1.80;;
76459;SDS011;65299;46.084;18.762;2023-03-31T17:21:41;6.75;;;1.52;;
76459;SDS011;65299;46.084;18.762;2023-03-31T17:24:42;3.03;;;1.53;;
76459;SDS011;65299;46.084;18.762;2023-03-31T17:27:42;3.50;;;1.27;;
76459;SDS011;65299;46.084;18.762;2023-03-31T17:30:43;4.47;;;1.77;;
76459;SDS011;65299;46.084;18.762;2023-03-31T17:33:46;6.55;;;2.17;;
76459;SDS011;65299;46.084;18.762;2023-03-31T17:36:47;10.60;;;2.58;;
76459;SDS011;65299;46.084;18.762;2023-03-31T17:39:50;5.63;;;1.80;;
76459;SDS011;65299;46.084;18.762;2023-03-31T17:42:51;5.23;;;2.00;;
76459;SDS011;65299;46.084;18.762;2023-03-31T17:45:58;6.33;;;2.00;;
76459;SDS011;65299;46.084;18.762;2023-03-31T17:49:01;8.18;;;2.33;;
76459;SDS011;65299;46.084;18.762;2023-03-31T17:52:01;5.13;;;1.80;;
76459;SDS011;65299;46.084;18.762;2023-03-31T17:55:02;3.50;;;1.80;;
76459;SDS011;65299;46.084;18.762;2023-03-31T17:58:03;5.50;;;1.93;;
76459;SDS011;65299;46.084;18.762;2023-03-31T18:01:05;4.25;;;1.75;;
76459;SDS011;65299;46.084;18.762;2023-03-31T18:04:06;6.25;;;3.05;;
76459;SDS011;65299;46.084;18.762;2023-03-31T18:07:07;7.80;;;2.65;;
76459;SDS011;65299;46.084;18.762;2023-03-31T18:10:09;6.32;;;2.53;;
76459;SDS011;65299;46.084;18.762;2023-03-31T18:13:10;6.87;;;2.43;;
76459;SDS011;65299;46.084;18.762;2023-03-31T18:16:10;7.60;;;3.27;;
76459;SDS011;65299;46.084;18.762;2023-03-31T18:19:11;6.50;;;2.50;;
76459;SDS011;65299;46.084;18.762;2023-03-31T18:22:13;8.50;;;3.55;;
76459;SDS011;65299;46.084;18.762;2023-03-31T18:25:13;11.50;;;5.40;;
76459;SDS011;65299;46.084;18.762;2023-03-31T18:28:15;12.32;;;4.60;;
76459;SDS011;65299;46.084;18.762;2023-03-31T18:31:16;9.10;;;4.68;;
76459;SDS011;65299;46.084;18.762;2023-03-31T18:34:17;8.50;;;3.70;;
76459;SDS011;65299;46.084;18.762;2023-03-31T18:37:17;5.35;;;2.30;;
76459;SDS011;65299;46.084;18.762;2023-03-31T18:40:18;8.83;;;2.40;;
76459;SDS011;65299;46.084;18.762;2023-03-31T18:43:19;12.57;;;4.13;;
76459;SDS011;65299;46.084;18.762;2023-03-31T18:46:23;8.95;;;3.85;;
76459;SDS011;65299;46.084;18.762;2023-03-31T18:49:23;8.10;;;3.57;;
76459;SDS011;65299;46.084;18.762;2023-03-31T18:52:24;9.23;;;3.30;;
76459;SDS011;65299;46.084;18.762;2023-03-31T18:55:24;10.07;;;3.03;;
76459;SDS011;65299;46.084;18.762;2023-03-31T18:58:26;8.33;;;2.37;;
76459;SDS011;65299;46.084;18.762;2023-03-31T19:01:28;5.95;;;1.83;;
76459;SDS011;65299;46.084;18.762;2023-03-31T19:04:28;5.37;;;2.00;;
76459;SDS011;65299;46.084;18.762;2023-03-31T19:07:29;6.93;;;2.30;;
76459;SDS011;65299;46.084;18.762;2023-03-31T19:10:29;5.43;;;2.07;;
76459;SDS011;65299;46.084;18.762;2023-03-31T19:13:30;4.82;;;1.80;;
76459;SDS011;65299;46.084;18.762;2023-03-31T19:16:31;6.93;;;2.17;;
76459;SDS011;65299;46.084;18.762;2023-03-31T19:19:33;6.55;;;1.95;;
76459;SDS011;65299;46.084;18.762;2023-03-31T19:22:34;5.13;;;2.00;;
76459;SDS011;65299;46.084;18.762;2023-03-31T19:25:36;6.28;;;2.42;;
76459;SDS011;65299;46.084;18.762;2023-03-31T19:28:36;6.27;;;2.00;;
76459;SDS011;65299;46.084;18.762;2023-03-31T19:31:37;5.97;;;1.85;;
76459;SDS011;65299;46.084;18.762;2023-03-31T19:34:38;11.27;;;2.27;;
76459;SDS011;65299;46.084;18.762;2023-03-31T19:37:38;5.47;;;2.03;;
76459;SDS011;65299;46.084;18.762;2023-03-31T19:40:39;6.27;;;2.20;;
76459;SDS011;65299;46.084;18.762;2023-03-31T19:43:41;6.40;;;2.20;;
76459;SDS011;65299;46.084;18.762;2023-03-31T19:46:41;6.63;;;2.20;;
76459;SDS011;65299;46.084;18.762;2023-03-31T19:49:42;5.90;;;2.57;;
76459;SDS011;65299;46.084;18.762;2023-03-31T19:52:42;7.83;;;2.10;;
76459;SDS011;65299;46.084;18.762;2023-03-31T19:55:53;4.47;;;1.80;;
76459;SDS011;65299;46.084;18.762;2023-03-31T19:58:55;6.28;;;2.42;;
76459;SDS011;65299;46.084;18.762;2023-03-31T20:01:55;6.30;;;2.00;;
76459;SDS011;65299;46.084;18.762;2023-03-31T20:04:58;6.80;;;2.00;;
76459;SDS011;65299;46.084;18.762;2023-03-31T20:07:59;5.28;;;2.75;;
76459;SDS011;65299;46.084;18.762;2023-03-31T20:11:00;3.53;;;2.00;;
76459;SDS011;65299;46.084;18.762;2023-03-31T20:14:02;5.82;;;2.13;;
76459;SDS011;65299;46.084;18.762;2023-03-31T20:17:03;5.88;;;2.60;;
76459;SDS011;65299;46.084;18.762;2023-03-31T20:20:05;7.82;;;2.10;;
76459;SDS011;65299;46.084;18.762;2023-03-31T20:23:07;5.27;;;1.90;;
76459;SDS011;65299;46.084;18.762;2023-03-31T20:26:08;4.78;;;2.13;;
76459;SDS011;65299;46.084;18.762;2023-03-31T20:29:10;5.63;;;2.22;;
76459;SDS011;65299;46.084;18.762;2023-03-31T20:32:11;6.60;;;2.37;;
76459;SDS011;65299;46.084;18.762;2023-03-31T20:35:12;5.88;;;2.15;;
76459;SDS011;65299;46.084;18.762;2023-03-31T20:38:12;4.27;;;2.07;;
76459;SDS011;65299;46.084;18.762;2023-03-31T20:41:13;6.22;;;2.30;;
76459;SDS011;65299;46.084;18.762;2023-03-31T20:44:14;6.35;;;2.50;;
76459;SDS011;65299;46.084;18.762;2023-03-31T20:47:15;4.63;;;3.10;;
76459;SDS011;65299;46.084;18.762;2023-03-31T20:50:15;7.87;;;3.20;;
76459;SDS011;65299;46.084;18.762;2023-03-31T20:53:16;6.05;;;2.50;;
76459;SDS011;65299;46.084;18.762;2023-03-31T20:56:20;7.60;;;2.47;;
76459;SDS011;65299;46.084;18.762;2023-03-31T20:59:22;5.93;;;2.60;;
76459;SDS011;65299;46.084;18.762;2023-03-31T21:02:23;6.63;;;2.60;;
76459;SDS011;65299;46.084;18.762;2023-03-31T21:05:23;6.33;;;2.50;;
76459;SDS011;65299;46.084;18.762;2023-03-31T21:08:23;6.47;;;2.53;;
76459;SDS011;65299;46.084;18.762;2023-03-31T21:11:24;5.70;;;2.43;;
76459;SDS011;65299;46.084;18.762;2023-03-31T21:14:25;6.83;;;2.57;;
76459;SDS011;65299;46.084;18.762;2023-03-31T21:17:26;4.27;;;2.33;;